Time;durP1;ratioP1;P1;durP2;ratioP2;P2;SDS_P1;SDS_P2;PMS_P1;PMS_P2;Temp;Humidity;BMP_temperature;BMP_pressure;BME280_temperature;BME280_humidity;BME280_pressure;Samples;Min_cycle;Max_cycle;Signal;HPM_P1;HPM_P2
2024/04/08 00:00:14;;;;;;;;;;;;;;;;;;1048510;28;19917;-77
2024/04/08 00:00:45;;;;;;;;;;;;;;;;;;1048708;28;19966;-77
2024/04/08 00:01:15;;;;;;;;;;;;;;;;;;1048686;28;19912;-77
2024/04/08 00:01:45;;;;;;;;;;;;;;;;;;1044046;28;19912;-77
2024/04/08 00:02:15;;;;;;;;;;;;;;;;;;1044382;28;19913;-77
2024/04/08 00:02:45;;;;;;;;;;;;;;;;;;1042378;28;19919;-77
2024/04/08 00:03:16;;;;;;;;;;;;;;;;;;1042610;28;19917;-77
2024/04/08 00:03:46;;;;;;;;;;;;;;;;;;1044100;28;19912;-77
2024/04/08 00:04:16;;;;;;;;;;;;;;;;;;1040343;28;20051;-77
2024/04/08 00:04:47;;;;;;;;;;;;;;;;;;1040264;28;19920;-77
2024/04/08 00:05:17;;;;;;;;;;;;;;;;;;1040063;28;19940;-76
2024/04/08 00:05:47;;;;;;;;;;;;;;;;;;1040282;28;19924;-77
2024/04/08 00:06:17;;;;;;;;;;;;;;;;;;1043967;28;19919;-77
2024/04/08 00:06:47;;;;;;;;;;;;;;;;;;1048854;28;19912;-77
2024/04/08 00:07:18;;;;;;;;;;;;;;;;;;1049087;28;19913;-77
2024/04/08 00:07:48;;;;;;;;;;;;;;;;;;1044265;28;19917;-77
2024/04/08 00:08:18;;;;;;;;;;;;;;;;;;1040189;28;19921;-77
2024/04/08 00:08:49;;;;;;;;;;;;;;;;;;1040064;28;19927;-77
2024/04/08 00:09:19;;;;;;;;;;;;;;;;;;1036025;28;20467;-76
2024/04/08 00:09:49;;;;;;;;;;;;;;;;;;1037221;28;19924;-77
2024/04/08 00:10:19;;;;;;;;;;;;;;;;;;1041899;28;19921;-77
2024/04/08 00:10:49;;;;;;;;;;;;;;;;;;1038118;28;19913;-77
2024/04/08 00:11:20;;;;;;;;;;;;;;;;;;1040195;28;19920;-76
2024/04/08 00:11:50;;;;;;;;;;;;;;;;;;1044489;28;20440;-77
2024/04/08 00:12:20;;;;;;;;;;;;;;;;;;1044254;28;20298;-77
2024/04/08 00:12:50;;;;;;;;;;;;;;;;;;1044072;28;20340;-77
2024/04/08 00:13:21;;;;;;;;;;;;;;;;;;1043292;28;20373;-77
2024/04/08 00:13:51;;;;;;;;;;;;;;;;;;1041623;28;19917;-77
2024/04/08 00:14:21;;;;;;;;;;;;;;;;;;1041622;28;19913;-77
2024/04/08 00:14:51;;;;;;;;;;;;;;;;;;1041419;28;20285;-77
2024/04/08 00:15:21;;;;;;;;;;;;;;;;;;1048130;28;20287;-77
2024/04/08 00:15:52;;;;;;;;;;;;;;;;;;1048795;28;20381;-77
2024/04/08 00:16:23;;;;;;;;;;;;;;;;;;1048676;28;20441;-77
2024/04/08 00:16:54;;;;;;;;;;;;;;;;;;1048498;28;20330;-77
2024/04/08 00:17:24;;;;;;;;;;;;;;;;;;1048583;28;19974;-77
2024/04/08 00:17:54;;;;;;;;;;;;;;;;;;1048697;28;20295;-77
2024/04/08 00:18:25;;;;;;;;;;;;;;;;;;1048558;28;19919;-77
2024/04/08 00:18:55;;;;;;;;;;;;;;;;;;1048601;28;19912;-77
2024/04/08 00:19:25;;;;;;;;;;;;;;;;;;1044030;28;19963;-77
2024/04/08 00:19:55;;;;;;;;;;;;;;;;;;1044757;28;19913;-77
2024/04/08 00:20:26;;;;;;;;;;;;;;;;;;1044130;28;19920;-77
2024/04/08 00:20:56;;;;;;;;;;;;;;;;;;1043584;28;19913;-77
2024/04/08 00:21:26;;;;;;;;;;;;;;;;;;1048470;28;19912;-77
2024/04/08 00:21:56;;;;;;;;;;;;;;;;;;1044329;28;19920;-77
2024/04/08 00:22:27;;;;;;;;;;;;;;;;;;1044154;28;19920;-77
2024/04/08 00:22:57;;;;;;;;;;;;;;;;;;1044210;28;19960;-77
2024/04/08 00:23:27;;;;;;;;;;;;;;;;;;1044026;28;19913;-77
2024/04/08 00:23:57;;;;;;;;;;;;;;;;;;1048145;28;19920;-77
2024/04/08 00:24:27;;;;;;;;;;;;;;;;;;1048611;28;20007;-77
2024/04/08 00:24:58;;;;;;;;;;;;;;;;;;1048422;28;19974;-77
2024/04/08 00:25:28;;;;;;;;;;;;;;;;;;1044018;28;20369;-77
2024/04/08 00:25:59;;;;;;;;;;;;;;;;;;1044416;28;19975;-77
2024/04/08 00:26:29;;;;;;;;;;;;;;;;;;1044189;28;19913;-77
2024/04/08 00:26:59;;;;;;;;;;;;;;;;;;1044655;28;19920;-77
2024/04/08 00:27:30;;;;;;;;;;;;;;;;;;1044096;28;19913;-77
2024/04/08 00:28:00;;;;;;;;;;;;;;;;;;1044310;28;20285;-77
2024/04/08 00:28:30;;;;;;;;;;;;;;;;;;1044083;28;19916;-77
2024/04/08 00:29:01;;;;;;;;;;;;;;;;;;1040012;28;19920;-77
2024/04/08 00:29:31;;;;;;;;;;;;;;;;;;1043990;28;20007;-77
2024/04/08 00:30:03;;;;;;;;;;;;;;;;;;1044580;28;19912;-77
2024/04/08 00:30:35;;;;;;;;;;;;;;;;;;1044014;28;19935;-77
2024/04/08 00:31:05;;;;;;;;;;;;;;;;;;1043943;28;19949;-77
2024/04/08 00:31:35;;;;;;;;;;;;;;;;;;1045009;28;19956;-78
2024/04/08 00:32:06;;;;;;;;;;;;;;;;;;1040584;28;19935;-78
2024/04/08 00:32:36;;;;;;;;;;;;;;;;;;1044024;28;20016;-77
2024/04/08 00:33:06;;;;;;;;;;;;;;;;;;1042219;28;19960;-77
2024/04/08 00:33:37;;;;;;;;;;;;;;;;;;1041626;28;20011;-77
2024/04/08 00:34:07;;;;;;;;;;;;;;;;;;1044807;28;19913;-77
2024/04/08 00:34:37;;;;;;;;;;;;;;;;;;1044347;28;19912;-77
2024/04/08 00:35:07;;;;;;;;;;;;;;;;;;1044038;28;19917;-77
2024/04/08 00:35:37;;;;;;;;;;;;;;;;;;1044263;28;19967;-77
2024/04/08 00:36:08;;;;;;;;;;;;;;;;;;1043000;28;19919;-77
2024/04/08 00:36:39;;;;;;;;;;;;;;;;;;1042994;28;20448;-77
2024/04/08 00:37:09;;;;;;;;;;;;;;;;;;1044271;28;20447;-77
2024/04/08 00:37:40;;;;;;;;;;;;;;;;;;1039814;28;19913;-77
2024/04/08 00:38:10;;;;;;;;;;;;;;;;;;1044284;28;19919;-77
2024/04/08 00:38:40;;;;;;;;;;;;;;;;;;1041579;28;20425;-77
2024/04/08 00:39:10;;;;;;;;;;;;;;;;;;1041005;28;20420;-77
2024/04/08 00:39:41;;;;;;;;;;;;;;;;;;1044126;28;20269;-77
2024/04/08 00:40:11;;;;;;;;;;;;;;;;;;1044492;28;20358;-77
2024/04/08 00:40:41;;;;;;;;;;;;;;;;;;1043946;28;20373;-77
2024/04/08 00:41:11;;;;;;;;;;;;;;;;;;1048604;28;19913;-77
2024/04/08 00:41:42;;;;;;;;;;;;;;;;;;1044307;28;20011;-77
2024/04/08 00:42:12;;;;;;;;;;;;;;;;;;1042206;28;20029;-77
2024/04/08 00:42:42;;;;;;;;;;;;;;;;;;1041676;28;20714;-77
2024/04/08 00:43:12;;;;;;;;;;;;;;;;;;1042404;28;19956;-77
2024/04/08 00:43:42;;;;;;;;;;;;;;;;;;1043784;28;19917;-77
2024/04/08 00:44:13;;;;;;;;;;;;;;;;;;1044177;28;19966;-77
2024/04/08 00:44:43;;;;;;;;;;;;;;;;;;1043904;28;19938;-77
2024/04/08 00:45:13;;;;;;;;;;;;;;;;;;1044590;28;19959;-77
2024/04/08 00:45:43;;;;;;;;;;;;;;;;;;1043297;28;20012;-77
2024/04/08 00:46:14;;;;;;;;;;;;;;;;;;1041624;28;20377;-77
2024/04/08 00:46:46;;;;;;;;;;;;;;;;;;1041641;28;20463;-77
2024/04/08 00:47:16;;;;;;;;;;;;;;;;;;1038554;28;20344;-77
2024/04/08 00:47:46;;;;;;;;;;;;;;;;;;1044047;28;19920;-77
2024/04/08 00:48:17;;;;;;;;;;;;;;;;;;1044008;28;19913;-77
2024/04/08 00:48:48;;;;;;;;;;;;;;;;;;1044030;28;19927;-77
2024/04/08 00:49:18;;;;;;;;;;;;;;;;;;1048472;28;19916;-77
2024/04/08 00:49:48;;;;;;;;;;;;;;;;;;1048836;28;19919;-78
2024/04/08 00:50:18;;;;;;;;;;;;;;;;;;1048750;28;19956;-78
2024/04/08 00:50:51;;;;;;;;;;;;;;;;;;1043920;28;19923;-78
2024/04/08 00:51:22;;;;;;;;;;;;;;;;;;1043953;28;19921;-77
2024/04/08 00:51:52;;;;;;;;;;;;;;;;;;1043997;28;19931;-77
2024/04/08 00:52:22;;;;;;;;;;;;;;;;;;1041933;28;20174;-77
2024/04/08 00:52:54;;;;;;;;;;;;;;;;;;1043968;28;19967;-77
2024/04/08 00:53:24;;;;;;;;;;;;;;;;;;1044105;28;19919;-77
2024/04/08 00:53:55;;;;;;;;;;;;;;;;;;1041508;28;19913;-77
2024/04/08 00:54:25;;;;;;;;;;;;;;;;;;1042017;28;19913;-77
2024/04/08 00:54:55;;;;;;;;;;;;;;;;;;1042112;28;20306;-77
2024/04/08 00:55:26;;;;;;;;;;;;;;;;;;1041726;28;19979;-77
2024/04/08 00:55:56;;;;;;;;;;;;;;;;;;1044275;28;20398;-77
2024/04/08 00:56:26;;;;;;;;;;;;;;;;;;1038836;28;19953;-77
2024/04/08 00:56:56;;;;;;;;;;;;;;;;;;1038909;28;20012;-77
2024/04/08 00:57:27;;;;;;;;;;;;;;;;;;1038447;28;20000;-77
2024/04/08 00:57:57;;;;;;;;;;;;;;;;;;1036948;28;20012;-77
2024/04/08 00:58:27;;;;;;;;;;;;;;;;;;1043867;28;19913;-77
2024/04/08 00:58:57;;;;;;;;;;;;;;;;;;1044190;28;19928;-77
2024/04/08 00:59:28;;;;;;;;;;;;;;;;;;1044280;28;19919;-77
2024/04/08 00:59:58;;;;;;;;;;;;;;;;;;1048658;28;19920;-77
2024/04/08 01:00:28;;;;;;;;;;;;;;;;;;1048109;28;20222;-77
2024/04/08 01:00:58;;;;;;;;;;;;;;;;;;1048407;28;19920;-77
2024/04/08 01:01:29;;;;;;;;;;;;;;;;;;1043825;28;19913;-77
2024/04/08 01:01:59;;;;;;;;;;;;;;;;;;1040229;28;20000;-77
2024/04/08 01:02:29;;;;;;;;;;;;;;;;;;1040480;28;19913;-77
2024/04/08 01:03:02;;;;;;;;;;;;;;;;;;1040161;28;19913;-77
2024/04/08 01:03:32;;;;;;;;;;;;;;;;;;1039998;28;19913;-77
2024/04/08 01:04:02;;;;;;;;;;;;;;;;;;1039986;28;19917;-77
2024/04/08 01:04:32;;;;;;;;;;;;;;;;;;1039024;28;19917;-77
2024/04/08 01:05:03;;;;;;;;;;;;;;;;;;1039147;28;19923;-77
2024/04/08 01:05:33;;;;;;;;;;;;;;;;;;1039781;28;20448;-77
2024/04/08 01:06:03;;;;;;;;;;;;;;;;;;1042049;28;20484;-77
2024/04/08 01:06:33;;;;;;;;;;;;;;;;;;1044833;28;19913;-77
2024/04/08 01:07:03;;;;;;;;;;;;;;;;;;1046351;28;19919;-77
2024/04/08 01:07:34;;;;;;;;;;;;;;;;;;1046156;28;20422;-77
2024/04/08 01:08:04;;;;;;;;;;;;;;;;;;1048460;28;19913;-77
2024/04/08 01:08:34;;;;;;;;;;;;;;;;;;1048297;28;20355;-77
2024/04/08 01:09:04;;;;;;;;;;;;;;;;;;1043796;28;20288;-77
2024/04/08 01:09:35;;;;;;;;;;;;;;;;;;1044263;28;20292;-77
2024/04/08 01:10:05;;;;;;;;;;;;;;;;;;1043814;28;20392;-77
2024/04/08 01:10:35;;;;;;;;;;;;;;;;;;1043872;28;20382;-77
2024/04/08 01:11:05;;;;;;;;;;;;;;;;;;1048073;28;19913;-77
2024/04/08 01:11:35;;;;;;;;;;;;;;;;;;1048414;28;19960;-77
2024/04/08 01:12:06;;;;;;;;;;;;;;;;;;1043878;28;19913;-77
2024/04/08 01:12:36;;;;;;;;;;;;;;;;;;1039552;28;19917;-77
2024/04/08 01:13:06;;;;;;;;;;;;;;;;;;1035655;28;20286;-78
2024/04/08 01:13:37;;;;;;;;;;;;;;;;;;1035876;28;19913;-78
2024/04/08 01:14:08;;;;;;;;;;;;;;;;;;1040267;28;19959;-78
2024/04/08 01:14:38;;;;;;;;;;;;;;;;;;1039689;28;19939;-78
2024/04/08 01:15:08;;;;;;;;;;;;;;;;;;1042748;28;20397;-77
2024/04/08 01:15:39;;;;;;;;;;;;;;;;;;1043739;28;19913;-77
2024/04/08 01:16:09;;;;;;;;;;;;;;;;;;1044555;28;19935;-77
2024/04/08 01:16:39;;;;;;;;;;;;;;;;;;1048145;28;20474;-77
2024/04/08 01:17:15;;;;;;;;;;;;;;;;;;1043671;28;19939;-77
2024/04/08 01:17:46;;;;;;;;;;;;;;;;;;1043776;28;20428;-77
2024/04/08 01:18:16;;;;;;;;;;;;;;;;;;1043949;28;19912;-78
2024/04/08 01:18:46;;;;;;;;;;;;;;;;;;1040364;28;19919;-77
2024/04/08 01:19:22;;;;;;;;;;;;;;;;;;1043841;28;19913;-77
2024/04/08 01:19:53;;;;;;;;;;;;;;;;;;1044343;28;19912;-78
2024/04/08 01:20:23;;;;;;;;;;;;;;;;;;1040487;28;19940;-77
2024/04/08 01:20:53;;;;;;;;;;;;;;;;;;1044514;28;20007;-77
2024/04/08 01:21:23;;;;;;;;;;;;;;;;;;1043828;28;20438;-77
2024/04/08 01:21:54;;;;;;;;;;;;;;;;;;1044345;28;20012;-78
2024/04/08 01:22:24;;;;;;;;;;;;;;;;;;1043755;28;19913;-78
2024/04/08 01:22:54;;;;;;;;;;;;;;;;;;1039715;28;19913;-78
2024/04/08 01:23:25;;;;;;;;;;;;;;;;;;1039464;28;19920;-78
2024/04/08 01:23:55;;;;;;;;;;;;;;;;;;1039907;28;19917;-78
2024/04/08 01:24:25;;;;;;;;;;;;;;;;;;1039417;28;19966;-78
2024/04/08 01:24:55;;;;;;;;;;;;;;;;;;1039439;28;19967;-78
2024/04/08 01:25:28;;;;;;;;;;;;;;;;;;1043759;28;20011;-78
2024/04/08 01:25:59;;;;;;;;;;;;;;;;;;1044888;28;20688;-78
2024/04/08 01:26:29;;;;;;;;;;;;;;;;;;1044488;28;19917;-78
2024/04/08 01:26:59;;;;;;;;;;;;;;;;;;1048746;28;19919;-78
2024/04/08 01:27:29;;;;;;;;;;;;;;;;;;1048699;28;19920;-78
2024/04/08 01:28:00;;;;;;;;;;;;;;;;;;1044747;28;19913;-78
2024/04/08 01:28:30;;;;;;;;;;;;;;;;;;1044479;28;20387;-78
2024/04/08 01:29:00;;;;;;;;;;;;;;;;;;1042869;28;19924;-78
2024/04/08 01:29:30;;;;;;;;;;;;;;;;;;1042601;28;20356;-78
2024/04/08 01:30:01;;;;;;;;;;;;;;;;;;1044889;28;20378;-79
2024/04/08 01:30:31;;;;;;;;;;;;;;;;;;1044409;28;19917;-78
2024/04/08 01:31:01;;;;;;;;;;;;;;;;;;1048760;28;19912;-78
2024/04/08 01:31:31;;;;;;;;;;;;;;;;;;1049262;28;19919;-78
2024/04/08 01:32:02;;;;;;;;;;;;;;;;;;1044780;28;19995;-78
2024/04/08 01:32:32;;;;;;;;;;;;;;;;;;1017328;28;20288;-78
2024/04/08 01:33:02;;;;;;;;;;;;;;;;;;1043229;28;20015;-78
2024/04/08 01:33:33;;;;;;;;;;;;;;;;;;1042655;28;19917;-78
2024/04/08 01:34:03;;;;;;;;;;;;;;;;;;1044704;28;19916;-78
2024/04/08 01:34:33;;;;;;;;;;;;;;;;;;1048481;28;21069;-78
2024/04/08 01:35:03;;;;;;;;;;;;;;;;;;1044232;28;20364;-78
2024/04/08 01:35:34;;;;;;;;;;;;;;;;;;1044369;28;19995;-78
2024/04/08 01:36:04;;;;;;;;;;;;;;;;;;1040769;28;19913;-78
2024/04/08 01:36:34;;;;;;;;;;;;;;;;;;1040390;28;19928;-77
2024/04/08 01:37:05;;;;;;;;;;;;;;;;;;1044414;28;19920;-78
2024/04/08 01:37:35;;;;;;;;;;;;;;;;;;1044443;28;19917;-78
2024/04/08 01:38:05;;;;;;;;;;;;;;;;;;1043723;28;19959;-79
2024/04/08 01:38:37;;;;;;;;;;;;;;;;;;1039186;28;20039;-78
2024/04/08 01:39:09;;;;;;;;;;;;;;;;;;1038101;28;19920;-78
2024/04/08 01:39:39;;;;;;;;;;;;;;;;;;1044124;28;19919;-78
2024/04/08 01:40:10;;;;;;;;;;;;;;;;;;1040861;28;20468;-78
2024/04/08 01:40:40;;;;;;;;;;;;;;;;;;1044721;28;20453;-77
2024/04/08 01:41:10;;;;;;;;;;;;;;;;;;1042093;28;19999;-78
2024/04/08 01:41:40;;;;;;;;;;;;;;;;;;1043139;28;19951;-78
2024/04/08 01:42:10;;;;;;;;;;;;;;;;;;1049666;28;19917;-78
2024/04/08 01:42:41;;;;;;;;;;;;;;;;;;1045739;28;20014;-78
2024/04/08 01:43:12;;;;;;;;;;;;;;;;;;1040344;28;19913;-78
2024/04/08 01:43:42;;;;;;;;;;;;;;;;;;1036406;28;20020;-78
2024/04/08 01:44:12;;;;;;;;;;;;;;;;;;1038170;28;19918;-78
2024/04/08 01:44:43;;;;;;;;;;;;;;;;;;1041124;28;19940;-78
2024/04/08 01:45:13;;;;;;;;;;;;;;;;;;1044626;28;20015;-78
2024/04/08 01:45:43;;;;;;;;;;;;;;;;;;1048747;28;20458;-78
2024/04/08 01:46:13;;;;;;;;;;;;;;;;;;1049014;28;20368;-78
2024/04/08 01:46:43;;;;;;;;;;;;;;;;;;1048690;28;20365;-78
2024/04/08 01:47:14;;;;;;;;;;;;;;;;;;1049093;28;19919;-78
2024/04/08 01:47:44;;;;;;;;;;;;;;;;;;1048177;28;19923;-78
2024/04/08 01:48:14;;;;;;;;;;;;;;;;;;1048911;28;20368;-78
2024/04/08 01:48:44;;;;;;;;;;;;;;;;;;1048755;28;20383;-78
2024/04/08 01:49:15;;;;;;;;;;;;;;;;;;1044447;28;20296;-78
2024/04/08 01:49:45;;;;;;;;;;;;;;;;;;1044143;28;19944;-78
2024/04/08 01:50:15;;;;;;;;;;;;;;;;;;1042669;28;19948;-79
2024/04/08 01:50:45;;;;;;;;;;;;;;;;;;1041035;28;20007;-78
2024/04/08 01:51:16;;;;;;;;;;;;;;;;;;1040357;28;20207;-78
2024/04/08 01:51:46;;;;;;;;;;;;;;;;;;1040170;28;19913;-79
2024/04/08 01:52:16;;;;;;;;;;;;;;;;;;1044541;28;19956;-78
2024/04/08 01:52:46;;;;;;;;;;;;;;;;;;1044392;28;19916;-79
2024/04/08 01:53:16;;;;;;;;;;;;;;;;;;1049428;28;19917;-78
2024/04/08 01:53:47;;;;;;;;;;;;;;;;;;1048959;28;20337;-78
2024/04/08 01:54:17;;;;;;;;;;;;;;;;;;1047859;28;19912;-78
2024/04/08 01:54:47;;;;;;;;;;;;;;;;;;1048695;28;19920;-78
2024/04/08 01:55:17;;;;;;;;;;;;;;;;;;1048727;28;19913;-78
2024/04/08 01:55:47;;;;;;;;;;;;;;;;;;1048860;28;19993;-78
2024/04/08 01:56:18;;;;;;;;;;;;;;;;;;1044584;28;19935;-78
2024/04/08 01:56:48;;;;;;;;;;;;;;;;;;1044539;28;19917;-78
2024/04/08 01:57:18;;;;;;;;;;;;;;;;;;1040610;28;19948;-79
2024/04/08 01:57:50;;;;;;;;;;;;;;;;;;1036794;28;19914;-78
2024/04/08 01:58:20;;;;;;;;;;;;;;;;;;1039623;28;19970;-78
2024/04/08 01:58:50;;;;;;;;;;;;;;;;;;1040213;28;19917;-79
2024/04/08 01:59:20;;;;;;;;;;;;;;;;;;1045072;28;19984;-79
2024/04/08 01:59:50;;;;;;;;;;;;;;;;;;1049333;28;20265;-79
2024/04/08 02:00:21;;;;;;;;;;;;;;;;;;1049369;28;19919;-78
2024/04/08 02:00:51;;;;;;;;;;;;;;;;;;1048786;28;19912;-78
2024/04/08 02:01:21;;;;;;;;;;;;;;;;;;1049109;28;19917;-78
2024/04/08 02:01:51;;;;;;;;;;;;;;;;;;1048924;28;19912;-78
2024/04/08 02:02:22;;;;;;;;;;;;;;;;;;1048732;28;19913;-78
2024/04/08 02:02:52;;;;;;;;;;;;;;;;;;1044419;28;19943;-79
2024/04/08 02:03:22;;;;;;;;;;;;;;;;;;1044554;28;20015;-78
2024/04/08 02:03:52;;;;;;;;;;;;;;;;;;1042982;28;19959;-79
2024/04/08 02:04:23;;;;;;;;;;;;;;;;;;1043300;28;19971;-79
2024/04/08 02:04:53;;;;;;;;;;;;;;;;;;1045293;28;19913;-79
2024/04/08 02:05:23;;;;;;;;;;;;;;;;;;1040128;28;19917;-78
2024/04/08 02:05:53;;;;;;;;;;;;;;;;;;1040120;28;19915;-78
2024/04/08 02:06:24;;;;;;;;;;;;;;;;;;1038594;28;19964;-78
2024/04/08 02:06:54;;;;;;;;;;;;;;;;;;1042580;28;19965;-78
2024/04/08 02:07:24;;;;;;;;;;;;;;;;;;1043457;28;19920;-78
2024/04/08 02:07:55;;;;;;;;;;;;;;;;;;1044534;28;19963;-79
2024/04/08 02:08:25;;;;;;;;;;;;;;;;;;1044340;28;20411;-78
2024/04/08 02:08:55;;;;;;;;;;;;;;;;;;1044522;28;19944;-78
2024/04/08 02:09:25;;;;;;;;;;;;;;;;;;1039229;28;20008;-79
2024/04/08 02:09:57;;;;;;;;;;;;;;;;;;1041066;28;20451;-79
2024/04/08 02:10:27;;;;;;;;;;;;;;;;;;1040242;28;19913;-78
2024/04/08 02:10:57;;;;;;;;;;;;;;;;;;1044573;28;20389;-78
2024/04/08 02:11:28;;;;;;;;;;;;;;;;;;1044230;28;20361;-79
2024/04/08 02:11:58;;;;;;;;;;;;;;;;;;1044645;28;20417;-79
2024/04/08 02:12:29;;;;;;;;;;;;;;;;;;1044426;28;20420;-79
2024/04/08 02:12:59;;;;;;;;;;;;;;;;;;1041469;28;20524;-78
2024/04/08 02:13:29;;;;;;;;;;;;;;;;;;1043312;28;20391;-78
2024/04/08 02:13:59;;;;;;;;;;;;;;;;;;1044789;28;20421;-78
2024/04/08 02:14:30;;;;;;;;;;;;;;;;;;1044121;28;19913;-78
2024/04/08 02:15:00;;;;;;;;;;;;;;;;;;1048686;28;19994;-78
2024/04/08 02:15:30;;;;;;;;;;;;;;;;;;1043408;28;19916;-79
2024/04/08 02:16:07;;;;;;;;;;;;;;;;;;1042669;28;19916;-78
2024/04/08 02:16:37;;;;;;;;;;;;;;;;;;1043369;28;20060;-78
2024/04/08 02:17:07;;;;;;;;;;;;;;;;;;1039288;28;19913;-78
2024/04/08 02:17:37;;;;;;;;;;;;;;;;;;1042221;28;20542;-78
2024/04/08 02:18:08;;;;;;;;;;;;;;;;;;1038600;28;20293;-78
2024/04/08 02:18:38;;;;;;;;;;;;;;;;;;1037503;28;20043;-78
2024/04/08 02:19:09;;;;;;;;;;;;;;;;;;1041376;28;19963;-78
2024/04/08 02:19:39;;;;;;;;;;;;;;;;;;1041374;28;19920;-78
2024/04/08 02:20:10;;;;;;;;;;;;;;;;;;1038593;28;19913;-79
2024/04/08 02:20:40;;;;;;;;;;;;;;;;;;1037460;28;19948;-78
2024/04/08 02:21:11;;;;;;;;;;;;;;;;;;1037735;28;19962;-79
2024/04/08 02:21:42;;;;;;;;;;;;;;;;;;1038282;28;19913;-79
2024/04/08 02:22:12;;;;;;;;;;;;;;;;;;1038314;28;19913;-79
2024/04/08 02:22:43;;;;;;;;;;;;;;;;;;1042306;28;19936;-78
2024/04/08 02:23:13;;;;;;;;;;;;;;;;;;1042508;28;19947;-78
2024/04/08 02:23:44;;;;;;;;;;;;;;;;;;1041022;28;20418;-78
2024/04/08 02:24:14;;;;;;;;;;;;;;;;;;1047851;28;20368;-78
2024/04/08 02:24:45;;;;;;;;;;;;;;;;;;1048347;28;19923;-79
2024/04/08 02:25:15;;;;;;;;;;;;;;;;;;1048386;28;19939;-78
2024/04/08 02:25:48;;;;;;;;;;;;;;;;;;1048728;28;19908;-78
2024/04/08 02:26:18;;;;;;;;;;;;;;;;;;1048461;28;20148;-78
2024/04/08 02:26:48;;;;;;;;;;;;;;;;;;1046278;28;19913;-78
2024/04/08 02:27:18;;;;;;;;;;;;;;;;;;1048066;28;20010;-78
2024/04/08 02:27:48;;;;;;;;;;;;;;;;;;1047984;28;20003;-79
2024/04/08 02:28:19;;;;;;;;;;;;;;;;;;1043738;28;20006;-78
2024/04/08 02:28:49;;;;;;;;;;;;;;;;;;1041465;28;19913;-79
2024/04/08 02:29:19;;;;;;;;;;;;;;;;;;1042666;28;20351;-78
2024/04/08 02:29:51;;;;;;;;;;;;;;;;;;1043047;28;20405;-79
2024/04/08 02:30:22;;;;;;;;;;;;;;;;;;1044243;28;19963;-78
2024/04/08 02:30:52;;;;;;;;;;;;;;;;;;1038919;28;20415;-78
2024/04/08 02:31:22;;;;;;;;;;;;;;;;;;1038307;28;19917;-79
2024/04/08 02:31:53;;;;;;;;;;;;;;;;;;1039330;28;19924;-78
2024/04/08 02:32:24;;;;;;;;;;;;;;;;;;1033806;28;19977;-78
2024/04/08 02:32:54;;;;;;;;;;;;;;;;;;1037896;28;20052;-78
2024/04/08 02:33:24;;;;;;;;;;;;;;;;;;1042383;28;19920;-78
2024/04/08 02:33:54;;;;;;;;;;;;;;;;;;1043666;28;19917;-78
2024/04/08 02:34:24;;;;;;;;;;;;;;;;;;1041320;28;19920;-79
2024/04/08 02:34:55;;;;;;;;;;;;;;;;;;1040104;28;19913;-78
2024/04/08 02:35:25;;;;;;;;;;;;;;;;;;1039923;28;19913;-78
2024/04/08 02:35:55;;;;;;;;;;;;;;;;;;1036014;28;19920;-78
2024/04/08 02:36:25;;;;;;;;;;;;;;;;;;1040010;28;19914;-77
2024/04/08 02:36:56;;;;;;;;;;;;;;;;;;1043984;28;19967;-78
2024/04/08 02:37:26;;;;;;;;;;;;;;;;;;1039421;28;19913;-79
2024/04/08 02:37:56;;;;;;;;;;;;;;;;;;1044486;28;19967;-78
2024/04/08 02:38:26;;;;;;;;;;;;;;;;;;1041939;28;19912;-78
2024/04/08 02:38:57;;;;;;;;;;;;;;;;;;1043341;28;20011;-78
2024/04/08 02:39:27;;;;;;;;;;;;;;;;;;1043334;28;19919;-78
2024/04/08 02:39:57;;;;;;;;;;;;;;;;;;1044090;28;19917;-78
2024/04/08 02:43:33;;;;;;;;;;;;;;;;;;987281;22;20007;-75
2024/04/08 02:44:05;;;;;;;;;;;;;;;;;;1051484;28;19927;-74
2024/04/08 02:48:48;;;;;;;;;;;;;;;;;;1043708;28;20372;-75
2024/04/08 02:53:54;;;;;;;;;;;;;;;;;;1054412;28;19958;-78
2024/04/08 02:54:24;;;;;;;;;;;;;;;;;;1056670;28;20370;-78
2024/04/08 02:54:55;;;;;;;;;;;;;;;;;;1057011;28;20379;-78
2024/04/08 02:55:25;;;;;;;;;;;;;;;;;;1061592;27;19911;-78
2024/04/08 02:55:55;;;;;;;;;;;;;;;;;;1061028;27;19922;-78
2024/04/08 02:56:25;;;;;;;;;;;;;;;;;;1061216;27;20328;-78
2024/04/08 02:56:56;;;;;;;;;;;;;;;;;;1056836;28;20253;-78
2024/04/08 02:57:26;;;;;;;;;;;;;;;;;;1056666;28;20446;-78
2024/04/08 02:57:56;;;;;;;;;;;;;;;;;;1056880;28;20363;-78
2024/04/08 02:58:26;;;;;;;;;;;;;;;;;;1052747;28;20405;-78
2024/04/08 02:58:56;;;;;;;;;;;;;;;;;;1056738;28;20422;-78
2024/04/08 02:59:27;;;;;;;;;;;;;;;;;;1051979;28;20384;-78
2024/04/08 02:59:57;;;;;;;;;;;;;;;;;;1052538;28;20370;-78
2024/04/08 03:00:27;;;;;;;;;;;;;;;;;;1056342;28;19912;-78
2024/04/08 03:00:57;;;;;;;;;;;;;;;;;;1056796;28;19916;-79
2024/04/08 03:01:28;;;;;;;;;;;;;;;;;;1060805;27;19963;-78
2024/04/08 03:01:58;;;;;;;;;;;;;;;;;;1061549;27;19911;-78
2024/04/08 03:02:28;;;;;;;;;;;;;;;;;;1061462;27;19920;-78
2024/04/08 03:02:58;;;;;;;;;;;;;;;;;;1061429;27;19960;-79
2024/04/08 03:03:29;;;;;;;;;;;;;;;;;;1061151;27;19998;-78
2024/04/08 03:03:59;;;;;;;;;;;;;;;;;;1057378;28;19916;-78
2024/04/08 03:04:29;;;;;;;;;;;;;;;;;;1053205;28;19923;-78
2024/04/08 03:05:00;;;;;;;;;;;;;;;;;;1056093;28;19912;-78
2024/04/08 03:05:30;;;;;;;;;;;;;;;;;;1053918;28;19919;-78
2024/04/08 03:06:00;;;;;;;;;;;;;;;;;;1055782;28;19912;-78
2024/04/08 03:06:32;;;;;;;;;;;;;;;;;;1056864;28;19911;-78
2024/04/08 03:07:02;;;;;;;;;;;;;;;;;;1056786;28;19954;-78
2024/04/08 03:07:32;;;;;;;;;;;;;;;;;;1051651;28;19978;-78
2024/04/08 03:08:03;;;;;;;;;;;;;;;;;;1057109;28;19980;-77
2024/04/08 03:08:35;;;;;;;;;;;;;;;;;;1056608;28;19915;-78
2024/04/08 03:09:06;;;;;;;;;;;;;;;;;;1052395;28;20377;-78
2024/04/08 03:09:36;;;;;;;;;;;;;;;;;;1052581;28;19926;-78
2024/04/08 03:10:06;;;;;;;;;;;;;;;;;;1052541;28;19912;-78
2024/04/08 03:10:37;;;;;;;;;;;;;;;;;;1051569;28;19952;-78
2024/04/08 03:11:07;;;;;;;;;;;;;;;;;;1052054;28;20011;-78
2024/04/08 03:11:37;;;;;;;;;;;;;;;;;;1051865;28;19916;-78
2024/04/08 03:12:07;;;;;;;;;;;;;;;;;;1052471;28;19912;-77
2024/04/08 03:12:38;;;;;;;;;;;;;;;;;;1052440;28;19911;-77
2024/04/08 03:13:08;;;;;;;;;;;;;;;;;;1056489;28;19943;-78
2024/04/08 03:13:38;;;;;;;;;;;;;;;;;;1060716;27;20267;-78
2024/04/08 03:14:08;;;;;;;;;;;;;;;;;;1061855;27;19911;-78
2024/04/08 03:14:38;;;;;;;;;;;;;;;;;;1061216;27;19992;-77
2024/04/08 03:15:09;;;;;;;;;;;;;;;;;;1061274;27;19969;-78
2024/04/08 03:15:39;;;;;;;;;;;;;;;;;;1061294;27;20348;-77
2024/04/08 03:16:09;;;;;;;;;;;;;;;;;;1061408;27;19911;-78
2024/04/08 03:16:39;;;;;;;;;;;;;;;;;;1060427;27;19957;-78
2024/04/08 03:17:10;;;;;;;;;;;;;;;;;;1056743;28;19999;-79
2024/04/08 03:17:40;;;;;;;;;;;;;;;;;;1056784;28;19947;-79
2024/04/08 03:18:10;;;;;;;;;;;;;;;;;;1052347;28;20816;-78
2024/04/08 03:18:40;;;;;;;;;;;;;;;;;;1052465;28;19912;-79
2024/04/08 03:19:11;;;;;;;;;;;;;;;;;;1056066;28;19911;-78
2024/04/08 03:19:41;;;;;;;;;;;;;;;;;;1050928;28;19923;-79
2024/04/08 03:20:11;;;;;;;;;;;;;;;;;;1051138;28;19923;-80
2024/04/08 03:20:41;;;;;;;;;;;;;;;;;;1050011;28;19916;-78
2024/04/08 03:21:12;;;;;;;;;;;;;;;;;;1051074;28;19923;-78
2024/04/08 03:21:42;;;;;;;;;;;;;;;;;;1056091;28;19923;-78
2024/04/08 03:22:12;;;;;;;;;;;;;;;;;;1061684;27;19912;-78
2024/04/08 03:22:42;;;;;;;;;;;;;;;;;;1056809;28;20050;-78
2024/04/08 03:23:13;;;;;;;;;;;;;;;;;;1057042;28;19998;-77
2024/04/08 03:23:43;;;;;;;;;;;;;;;;;;1056512;28;19911;-76
2024/04/08 03:24:13;;;;;;;;;;;;;;;;;;1055481;27;19915;-77
2024/04/08 03:24:43;;;;;;;;;;;;;;;;;;1061229;27;19911;-78
2024/04/08 03:25:13;;;;;;;;;;;;;;;;;;1059530;27;19960;-80
2024/04/08 03:25:44;;;;;;;;;;;;;;;;;;1053789;28;19907;-78
2024/04/08 03:26:15;;;;;;;;;;;;;;;;;;1056755;28;19919;-78
2024/04/08 03:26:45;;;;;;;;;;;;;;;;;;1057120;28;19923;-77
2024/04/08 03:27:15;;;;;;;;;;;;;;;;;;1054317;28;20370;-77
2024/04/08 03:27:45;;;;;;;;;;;;;;;;;;1055971;28;19912;-77
2024/04/08 03:28:16;;;;;;;;;;;;;;;;;;1056311;28;19911;-77
2024/04/08 03:28:46;;;;;;;;;;;;;;;;;;1054509;28;20014;-77
2024/04/08 03:29:16;;;;;;;;;;;;;;;;;;1056051;28;19919;-78
2024/04/08 03:29:46;;;;;;;;;;;;;;;;;;1060549;27;19912;-81
2024/04/08 03:30:16;;;;;;;;;;;;;;;;;;1056377;28;19916;-78
2024/04/08 03:30:47;;;;;;;;;;;;;;;;;;1056249;28;19916;-78
2024/04/08 03:31:17;;;;;;;;;;;;;;;;;;1054300;28;19967;-78
2024/04/08 03:31:47;;;;;;;;;;;;;;;;;;1053107;28;20027;-79
2024/04/08 03:32:17;;;;;;;;;;;;;;;;;;1057845;28;19949;-80
2024/04/08 03:32:48;;;;;;;;;;;;;;;;;;1056905;28;19919;-79
2024/04/08 03:33:18;;;;;;;;;;;;;;;;;;1051404;28;20033;-78
2024/04/08 03:33:48;;;;;;;;;;;;;;;;;;1052065;28;19912;-79
2024/04/08 03:34:18;;;;;;;;;;;;;;;;;;1056807;28;19919;-78
2024/04/08 03:34:49;;;;;;;;;;;;;;;;;;1052294;28;19919;-79
2024/04/08 03:35:19;;;;;;;;;;;;;;;;;;1056733;28;19911;-79
2024/04/08 03:35:49;;;;;;;;;;;;;;;;;;1056570;28;19915;-78
2024/04/08 03:36:19;;;;;;;;;;;;;;;;;;1054795;28;19923;-79
2024/04/08 03:36:50;;;;;;;;;;;;;;;;;;1058488;27;20002;-79
2024/04/08 03:37:26;;;;;;;;;;;;;;;;;;1058450;27;19966;-80
2024/04/08 03:37:56;;;;;;;;;;;;;;;;;;1057576;28;19949;-78
2024/04/08 03:38:26;;;;;;;;;;;;;;;;;;1056672;28;19983;-78
2024/04/08 03:38:57;;;;;;;;;;;;;;;;;;1055927;28;19911;-79
2024/04/08 03:39:27;;;;;;;;;;;;;;;;;;1056208;28;19911;-79